sensor_id;sensor_type;location;lat;lon;timestamp;P1;durP1;ratioP1;P2;durP2;ratioP2
47413;SDS011;33163;0.000;0.000;2022-08-02T00:01:51;1.55;;;1.02;;
47413;SDS011;33163;0.000;0.000;2022-08-02T00:04:20;4.25;;;0.90;;
47413;SDS011;33163;0.000;0.000;2022-08-02T00:06:46;3.03;;;1.10;;
47413;SDS011;33163;0.000;0.000;2022-08-02T00:09:13;4.28;;;0.90;;
47413;SDS011;33163;0.000;0.000;2022-08-02T00:11:40;3.40;;;1.08;;
47413;SDS011;33163;0.000;0.000;2022-08-02T00:14:07;1.70;;;1.30;;
47413;SDS011;33163;0.000;0.000;2022-08-02T00:16:34;3.55;;;0.90;;
47413;SDS011;33163;0.000;0.000;2022-08-02T00:19:00;2.05;;;0.80;;
47413;SDS011;33163;0.000;0.000;2022-08-02T00:21:29;2.92;;;0.93;;
47413;SDS011;33163;0.000;0.000;2022-08-02T00:23:55;1.52;;;1.00;;
47413;SDS011;33163;0.000;0.000;2022-08-02T00:26:22;3.00;;;1.00;;
47413;SDS011;33163;0.000;0.000;2022-08-02T00:28:49;2.28;;;1.10;;
47413;SDS011;33163;0.000;0.000;2022-08-02T00:31:16;4.38;;;1.40;;
47413;SDS011;33163;0.000;0.000;2022-08-02T00:33:43;2.50;;;1.02;;
47413;SDS011;33163;0.000;0.000;2022-08-02T00:36:09;2.33;;;1.17;;
47413;SDS011;33163;0.000;0.000;2022-08-02T00:38:37;1.55;;;0.80;;
47413;SDS011;33163;0.000;0.000;2022-08-02T00:41:12;1.63;;;1.05;;
47413;SDS011;33163;0.000;0.000;2022-08-02T00:43:40;1.45;;;0.70;;
47413;SDS011;33163;0.000;0.000;2022-08-02T00:46:07;4.72;;;1.10;;
47413;SDS011;33163;0.000;0.000;2022-08-02T00:48:34;1.77;;;0.80;;
47413;SDS011;33163;0.000;0.000;2022-08-02T00:51:01;3.03;;;1.05;;
47413;SDS011;33163;0.000;0.000;2022-08-02T00:53:28;3.05;;;1.08;;
47413;SDS011;33163;0.000;0.000;2022-08-02T00:55:56;2.42;;;0.90;;
47413;SDS011;33163;0.000;0.000;2022-08-02T00:58:23;2.13;;;0.88;;
47413;SDS011;33163;0.000;0.000;2022-08-02T01:00:49;0.93;;;0.80;;
47413;SDS011;33163;0.000;0.000;2022-08-02T01:03:16;5.43;;;1.48;;
47413;SDS011;33163;0.000;0.000;2022-08-02T01:05:43;1.65;;;0.93;;
47413;SDS011;33163;0.000;0.000;2022-08-02T01:08:10;3.33;;;0.95;;
47413;SDS011;33163;0.000;0.000;2022-08-02T01:10:36;0.90;;;0.60;;
47413;SDS011;33163;0.000;0.000;2022-08-02T01:13:05;1.23;;;0.70;;
47413;SDS011;33163;0.000;0.000;2022-08-02T01:15:32;2.05;;;1.00;;
47413;SDS011;33163;0.000;0.000;2022-08-02T01:18:02;3.13;;;0.93;;
47413;SDS011;33163;0.000;0.000;2022-08-02T01:20:44;2.35;;;0.90;;
47413;SDS011;33163;0.000;0.000;2022-08-02T01:23:32;3.60;;;1.15;;
47413;SDS011;33163;0.000;0.000;2022-08-02T01:26:13;2.15;;;0.90;;
47413;SDS011;33163;0.000;0.000;2022-08-02T01:28:53;2.67;;;1.10;;
47413;SDS011;33163;0.000;0.000;2022-08-02T01:31:28;1.02;;;0.80;;
47413;SDS011;33163;0.000;0.000;2022-08-02T01:33:59;2.22;;;1.00;;
47413;SDS011;33163;0.000;0.000;2022-08-02T01:36:31;1.50;;;1.10;;
47413;SDS011;33163;0.000;0.000;2022-08-02T01:39:01;2.33;;;1.13;;
47413;SDS011;33163;0.000;0.000;2022-08-02T01:41:29;3.05;;;1.02;;
47413;SDS011;33163;0.000;0.000;2022-08-02T01:43:59;3.28;;;0.95;;
47413;SDS011;33163;0.000;0.000;2022-08-02T01:46:28;4.50;;;1.30;;
47413;SDS011;33163;0.000;0.000;2022-08-02T01:48:56;1.40;;;0.88;;
47413;SDS011;33163;0.000;0.000;2022-08-02T01:51:27;4.15;;;1.50;;
47413;SDS011;33163;0.000;0.000;2022-08-02T01:54:13;1.33;;;0.80;;
47413;SDS011;33163;0.000;0.000;2022-08-02T01:56:42;3.08;;;0.80;;
47413;SDS011;33163;0.000;0.000;2022-08-02T01:59:12;1.27;;;0.70;;
47413;SDS011;33163;0.000;0.000;2022-08-02T02:01:41;1.77;;;1.02;;
47413;SDS011;33163;0.000;0.000;2022-08-02T02:04:11;3.67;;;0.90;;
47413;SDS011;33163;0.000;0.000;2022-08-02T02:06:41;2.78;;;0.88;;
47413;SDS011;33163;0.000;0.000;2022-08-02T02:09:10;1.60;;;1.02;;
47413;SDS011;33163;0.000;0.000;2022-08-02T02:11:39;3.17;;;0.93;;
47413;SDS011;33163;0.000;0.000;2022-08-02T02:14:08;1.75;;;0.65;;
47413;SDS011;33163;0.000;0.000;2022-08-02T02:16:39;1.20;;;0.82;;
47413;SDS011;33163;0.000;0.000;2022-08-02T02:19:09;2.63;;;0.90;;
47413;SDS011;33163;0.000;0.000;2022-08-02T02:21:40;3.17;;;1.00;;
47413;SDS011;33163;0.000;0.000;2022-08-02T02:24:07;1.65;;;1.00;;
47413;SDS011;33163;0.000;0.000;2022-08-02T02:26:34;1.77;;;0.93;;
47413;SDS011;33163;0.000;0.000;2022-08-02T02:29:03;1.40;;;0.82;;
47413;SDS011;33163;0.000;0.000;2022-08-02T02:31:36;1.70;;;1.02;;
47413;SDS011;33163;0.000;0.000;2022-08-02T02:34:07;1.77;;;1.00;;
47413;SDS011;33163;0.000;0.000;2022-08-02T02:36:37;2.72;;;1.27;;
47413;SDS011;33163;0.000;0.000;2022-08-02T02:39:06;2.33;;;1.00;;
47413;SDS011;33163;0.000;0.000;2022-08-02T02:41:36;3.58;;;0.90;;
47413;SDS011;33163;0.000;0.000;2022-08-02T02:44:05;1.80;;;0.90;;
47413;SDS011;33163;0.000;0.000;2022-08-02T02:46:37;1.60;;;0.90;;
47413;SDS011;33163;0.000;0.000;2022-08-02T02:49:09;2.53;;;1.00;;
47413;SDS011;33163;0.000;0.000;2022-08-02T02:51:38;1.70;;;1.13;;
47413;SDS011;33163;0.000;0.000;2022-08-02T02:54:05;3.30;;;1.20;;
47413;SDS011;33163;0.000;0.000;2022-08-02T02:56:34;2.42;;;1.00;;
47413;SDS011;33163;0.000;0.000;2022-08-02T02:59:03;1.48;;;0.77;;
47413;SDS011;33163;0.000;0.000;2022-08-02T03:01:30;2.72;;;1.00;;
47413;SDS011;33163;0.000;0.000;2022-08-02T03:04:00;1.55;;;0.82;;
47413;SDS011;33163;0.000;0.000;2022-08-02T03:06:29;0.95;;;0.55;;
47413;SDS011;33163;0.000;0.000;2022-08-02T03:08:57;2.45;;;1.17;;
47413;SDS011;33163;0.000;0.000;2022-08-02T03:11:24;2.15;;;0.90;;
47413;SDS011;33163;0.000;0.000;2022-08-02T03:13:53;3.33;;;1.27;;
47413;SDS011;33163;0.000;0.000;2022-08-02T03:16:21;0.77;;;0.65;;
47413;SDS011;33163;0.000;0.000;2022-08-02T03:18:48;2.30;;;0.82;;
47413;SDS011;33163;0.000;0.000;2022-08-02T03:21:16;2.10;;;1.10;;
47413;SDS011;33163;0.000;0.000;2022-08-02T03:23:43;4.18;;;1.15;;
47413;SDS011;33163;0.000;0.000;2022-08-02T03:26:10;1.75;;;1.00;;
47413;SDS011;33163;0.000;0.000;2022-08-02T03:28:38;2.30;;;0.88;;
47413;SDS011;33163;0.000;0.000;2022-08-02T03:31:05;1.63;;;0.80;;
47413;SDS011;33163;0.000;0.000;2022-08-02T03:33:32;1.30;;;0.80;;
47413;SDS011;33163;0.000;0.000;2022-08-02T03:36:01;1.27;;;0.82;;
47413;SDS011;33163;0.000;0.000;2022-08-02T03:38:31;1.02;;;0.70;;
47413;SDS011;33163;0.000;0.000;2022-08-02T03:41:00;3.92;;;1.08;;
47413;SDS011;33163;0.000;0.000;2022-08-02T03:43:28;5.43;;;0.98;;
47413;SDS011;33163;0.000;0.000;2022-08-02T03:45:55;1.98;;;0.98;;
47413;SDS011;33163;0.000;0.000;2022-08-02T03:48:24;2.60;;;1.23;;
47413;SDS011;33163;0.000;0.000;2022-08-02T03:50:52;3.13;;;0.82;;
47413;SDS011;33163;0.000;0.000;2022-08-02T03:53:19;1.30;;;0.82;;
47413;SDS011;33163;0.000;0.000;2022-08-02T03:55:47;2.35;;;0.82;;
47413;SDS011;33163;0.000;0.000;2022-08-02T03:58:18;2.00;;;0.90;;
47413;SDS011;33163;0.000;0.000;2022-08-02T04:00:45;4.57;;;1.10;;
47413;SDS011;33163;0.000;0.000;2022-08-02T04:03:12;3.60;;;0.80;;
47413;SDS011;33163;0.000;0.000;2022-08-02T04:05:39;3.00;;;1.08;;
47413;SDS011;33163;0.000;0.000;2022-08-02T04:08:06;1.10;;;0.90;;
47413;SDS011;33163;0.000;0.000;2022-08-02T04:10:32;3.40;;;1.27;;
47413;SDS011;33163;0.000;0.000;2022-08-02T04:13:21;1.48;;;1.05;;
47413;SDS011;33163;0.000;0.000;2022-08-02T04:15:52;1.20;;;0.82;;
47413;SDS011;33163;0.000;0.000;2022-08-02T04:18:24;1.73;;;1.00;;
47413;SDS011;33163;0.000;0.000;2022-08-02T04:20:54;0.90;;;0.80;;
47413;SDS011;33163;0.000;0.000;2022-08-02T04:23:24;3.25;;;0.95;;
47413;SDS011;33163;0.000;0.000;2022-08-02T04:25:54;2.45;;;1.25;;
47413;SDS011;33163;0.000;0.000;2022-08-02T04:28:24;1.50;;;0.95;;
47413;SDS011;33163;0.000;0.000;2022-08-02T04:30:51;3.38;;;0.90;;
47413;SDS011;33163;0.000;0.000;2022-08-02T04:33:19;2.33;;;1.10;;
47413;SDS011;33163;0.000;0.000;2022-08-02T04:35:46;3.03;;;0.95;;
47413;SDS011;33163;0.000;0.000;2022-08-02T04:38:13;3.92;;;1.10;;
47413;SDS011;33163;0.000;0.000;2022-08-02T04:40:48;2.88;;;1.13;;
47413;SDS011;33163;0.000;0.000;2022-08-02T04:45:43;1.08;;;0.85;;
47413;SDS011;33163;0.000;0.000;2022-08-02T04:48:12;2.50;;;1.00;;
47413;SDS011;33163;0.000;0.000;2022-08-02T04:50:38;2.92;;;1.30;;
47413;SDS011;33163;0.000;0.000;2022-08-02T04:53:05;1.55;;;1.05;;
47413;SDS011;33163;0.000;0.000;2022-08-02T04:55:32;2.40;;;0.73;;
47413;SDS011;33163;0.000;0.000;2022-08-02T04:57:59;3.20;;;1.20;;
47413;SDS011;33163;0.000;0.000;2022-08-02T05:00:26;1.42;;;1.00;;
47413;SDS011;33163;0.000;0.000;2022-08-02T05:02:55;1.75;;;1.00;;
47413;SDS011;33163;0.000;0.000;2022-08-02T05:05:23;2.65;;;1.00;;
47413;SDS011;33163;0.000;0.000;2022-08-02T05:07:50;4.00;;;1.17;;
47413;SDS011;33163;0.000;0.000;2022-08-02T05:10:17;2.90;;;0.90;;
47413;SDS011;33163;0.000;0.000;2022-08-02T05:12:44;5.38;;;1.02;;
47413;SDS011;33163;0.000;0.000;2022-08-02T05:15:11;1.92;;;1.10;;
47413;SDS011;33163;0.000;0.000;2022-08-02T05:17:40;2.92;;;1.00;;
47413;SDS011;33163;0.000;0.000;2022-08-02T05:20:10;4.10;;;1.40;;
47413;SDS011;33163;0.000;0.000;2022-08-02T05:22:41;2.45;;;0.98;;
47413;SDS011;33163;0.000;0.000;2022-08-02T05:25:08;2.47;;;1.00;;
47413;SDS011;33163;0.000;0.000;2022-08-02T05:27:35;3.00;;;1.10;;
47413;SDS011;33163;0.000;0.000;2022-08-02T05:30:02;2.22;;;1.15;;
47413;SDS011;33163;0.000;0.000;2022-08-02T05:32:29;1.85;;;0.95;;
47413;SDS011;33163;0.000;0.000;2022-08-02T05:34:56;2.60;;;1.00;;
47413;SDS011;33163;0.000;0.000;2022-08-02T05:37:26;1.55;;;0.90;;
47413;SDS011;33163;0.000;0.000;2022-08-02T05:39:53;4.35;;;1.23;;
47413;SDS011;33163;0.000;0.000;2022-08-02T05:42:19;1.25;;;1.10;;
47413;SDS011;33163;0.000;0.000;2022-08-02T05:44:46;2.45;;;1.23;;
47413;SDS011;33163;0.000;0.000;2022-08-02T05:47:13;1.70;;;1.00;;
47413;SDS011;33163;0.000;0.000;2022-08-02T05:49:39;3.10;;;1.20;;
47413;SDS011;33163;0.000;0.000;2022-08-02T05:52:08;2.40;;;1.15;;
47413;SDS011;33163;0.000;0.000;2022-08-02T05:54:45;4.03;;;1.42;;
47413;SDS011;33163;0.000;0.000;2022-08-02T05:57:16;6.57;;;1.20;;
47413;SDS011;33163;0.000;0.000;2022-08-02T05:59:55;1.08;;;0.95;;
47413;SDS011;33163;0.000;0.000;2022-08-02T06:02:35;1.90;;;1.10;;
47413;SDS011;33163;0.000;0.000;2022-08-02T06:07:43;1.50;;;1.13;;
47413;SDS011;33163;0.000;0.000;2022-08-02T06:10:13;3.13;;;1.20;;
47413;SDS011;33163;0.000;0.000;2022-08-02T06:12:44;2.17;;;1.20;;
47413;SDS011;33163;0.000;0.000;2022-08-02T06:15:13;2.03;;;1.00;;
47413;SDS011;33163;0.000;0.000;2022-08-02T06:17:42;1.92;;;1.20;;
47413;SDS011;33163;0.000;0.000;2022-08-02T06:20:09;2.13;;;1.05;;
47413;SDS011;33163;0.000;0.000;2022-08-02T06:22:39;5.68;;;1.40;;
47413;SDS011;33163;0.000;0.000;2022-08-02T06:25:07;7.60;;;1.55;;
47413;SDS011;33163;0.000;0.000;2022-08-02T06:27:36;4.47;;;1.20;;
47413;SDS011;33163;0.000;0.000;2022-08-02T06:30:06;1.58;;;1.20;;
47413;SDS011;33163;0.000;0.000;2022-08-02T06:32:34;1.77;;;1.02;;
47413;SDS011;33163;0.000;0.000;2022-08-02T06:35:02;2.05;;;1.20;;
47413;SDS011;33163;0.000;0.000;2022-08-02T06:37:34;2.17;;;1.02;;
47413;SDS011;33163;0.000;0.000;2022-08-02T06:40:05;2.53;;;1.20;;
47413;SDS011;33163;0.000;0.000;2022-08-02T06:42:46;5.40;;;1.75;;
47413;SDS011;33163;0.000;0.000;2022-08-02T06:45:16;1.75;;;1.10;;
47413;SDS011;33163;0.000;0.000;2022-08-02T06:47:43;4.25;;;1.38;;
47413;SDS011;33163;0.000;0.000;2022-08-02T06:50:10;4.00;;;1.48;;
47413;SDS011;33163;0.000;0.000;2022-08-02T06:52:37;2.58;;;1.40;;
47413;SDS011;33163;0.000;0.000;2022-08-02T06:55:07;3.45;;;1.50;;
47413;SDS011;33163;0.000;0.000;2022-08-02T06:57:35;7.40;;;1.88;;
47413;SDS011;33163;0.000;0.000;2022-08-02T07:00:04;4.60;;;2.00;;
47413;SDS011;33163;0.000;0.000;2022-08-02T07:02:33;3.45;;;1.90;;
47413;SDS011;33163;0.000;0.000;2022-08-02T07:05:00;2.80;;;1.67;;
47413;SDS011;33163;0.000;0.000;2022-08-02T07:07:27;3.03;;;1.92;;
47413;SDS011;33163;0.000;0.000;2022-08-02T07:09:54;4.00;;;2.22;;
47413;SDS011;33163;0.000;0.000;2022-08-02T07:12:21;3.78;;;2.30;;
47413;SDS011;33163;0.000;0.000;2022-08-02T07:14:47;6.45;;;2.53;;
47413;SDS011;33163;0.000;0.000;2022-08-02T07:17:16;4.80;;;2.92;;
47413;SDS011;33163;0.000;0.000;2022-08-02T07:19:42;9.30;;;2.85;;
47413;SDS011;33163;0.000;0.000;2022-08-02T07:22:09;7.35;;;3.80;;
47413;SDS011;33163;0.000;0.000;2022-08-02T07:24:37;5.28;;;3.22;;
47413;SDS011;33163;0.000;0.000;2022-08-02T07:27:04;4.78;;;3.35;;
47413;SDS011;33163;0.000;0.000;2022-08-02T07:29:31;3.92;;;2.75;;
47413;SDS011;33163;0.000;0.000;2022-08-02T07:31:57;6.18;;;3.28;;
47413;SDS011;33163;0.000;0.000;2022-08-02T07:34:26;5.40;;;3.20;;
47413;SDS011;33163;0.000;0.000;2022-08-02T07:36:52;6.70;;;3.20;;
47413;SDS011;33163;0.000;0.000;2022-08-02T07:39:20;8.45;;;3.20;;
47413;SDS011;33163;0.000;0.000;2022-08-02T07:41:47;5.00;;;3.28;;
47413;SDS011;33163;0.000;0.000;2022-08-02T07:44:15;7.07;;;3.42;;
47413;SDS011;33163;0.000;0.000;2022-08-02T07:46:42;5.18;;;2.83;;
47413;SDS011;33163;0.000;0.000;2022-08-02T07:49:09;5.18;;;3.00;;
47413;SDS011;33163;0.000;0.000;2022-08-02T07:51:39;5.22;;;2.63;;
47413;SDS011;33163;0.000;0.000;2022-08-02T07:54:05;5.55;;;3.45;;
47413;SDS011;33163;0.000;0.000;2022-08-02T07:56:32;3.05;;;2.58;;
47413;SDS011;33163;0.000;0.000;2022-08-02T07:58:59;8.50;;;3.15;;
47413;SDS011;33163;0.000;0.000;2022-08-02T08:01:26;8.25;;;3.10;;
47413;SDS011;33163;0.000;0.000;2022-08-02T08:03:52;4.95;;;3.13;;
47413;SDS011;33163;0.000;0.000;2022-08-02T08:06:19;6.53;;;3.08;;
47413;SDS011;33163;0.000;0.000;2022-08-02T08:08:47;6.55;;;2.88;;
47413;SDS011;33163;0.000;0.000;2022-08-02T08:11:14;5.07;;;2.88;;
47413;SDS011;33163;0.000;0.000;2022-08-02T08:13:41;5.05;;;2.95;;
47413;SDS011;33163;0.000;0.000;2022-08-02T08:16:07;5.22;;;3.13;;
47413;SDS011;33163;0.000;0.000;2022-08-02T08:18:34;5.97;;;3.45;;
47413;SDS011;33163;0.000;0.000;2022-08-02T08:21:01;6.22;;;3.42;;
47413;SDS011;33163;0.000;0.000;2022-08-02T08:23:28;4.00;;;2.92;;
47413;SDS011;33163;0.000;0.000;2022-08-02T08:25:56;5.00;;;3.42;;
47413;SDS011;33163;0.000;0.000;2022-08-02T08:28:23;7.35;;;3.10;;
47413;SDS011;33163;0.000;0.000;2022-08-02T08:30:50;6.35;;;3.00;;
47413;SDS011;33163;0.000;0.000;2022-08-02T08:33:16;5.60;;;3.08;;
47413;SDS011;33163;0.000;0.000;2022-08-02T08:35:43;3.53;;;2.70;;
47413;SDS011;33163;0.000;0.000;2022-08-02T08:38:10;4.32;;;2.63;;
47413;SDS011;33163;0.000;0.000;2022-08-02T08:40:37;5.82;;;3.10;;
47413;SDS011;33163;0.000;0.000;2022-08-02T08:43:07;4.88;;;2.75;;
47413;SDS011;33163;0.000;0.000;2022-08-02T08:45:34;6.82;;;3.33;;
47413;SDS011;33163;0.000;0.000;2022-08-02T08:48:04;3.78;;;2.67;;
47413;SDS011;33163;0.000;0.000;2022-08-02T08:50:36;5.38;;;3.35;;
47413;SDS011;33163;0.000;0.000;2022-08-02T08:53:11;3.03;;;2.50;;
47413;SDS011;33163;0.000;0.000;2022-08-02T08:55:40;4.75;;;3.00;;
47413;SDS011;33163;0.000;0.000;2022-08-02T08:58:09;3.28;;;2.70;;
47413;SDS011;33163;0.000;0.000;2022-08-02T09:00:37;5.53;;;2.53;;
47413;SDS011;33163;0.000;0.000;2022-08-02T09:03:07;4.63;;;2.88;;
47413;SDS011;33163;0.000;0.000;2022-08-02T09:05:35;4.47;;;3.13;;
47413;SDS011;33163;0.000;0.000;2022-08-02T09:08:03;5.88;;;2.70;;
47413;SDS011;33163;0.000;0.000;2022-08-02T09:10:34;4.75;;;2.90;;
47413;SDS011;33163;0.000;0.000;2022-08-02T09:13:14;8.45;;;3.22;;
47413;SDS011;33163;0.000;0.000;2022-08-02T09:15:45;3.25;;;2.92;;
47413;SDS011;33163;0.000;0.000;2022-08-02T09:18:20;7.45;;;3.00;;
47413;SDS011;33163;0.000;0.000;2022-08-02T09:20:54;4.30;;;2.58;;
47413;SDS011;33163;0.000;0.000;2022-08-02T09:23:22;3.65;;;2.38;;
47413;SDS011;33163;0.000;0.000;2022-08-02T09:25:54;5.45;;;3.22;;
47413;SDS011;33163;0.000;0.000;2022-08-02T09:28:28;3.63;;;2.50;;
47413;SDS011;33163;0.000;0.000;2022-08-02T09:30:56;4.60;;;2.47;;
47413;SDS011;33163;0.000;0.000;2022-08-02T09:33:28;3.28;;;2.30;;
47413;SDS011;33163;0.000;0.000;2022-08-02T09:35:58;6.07;;;2.33;;
47413;SDS011;33163;0.000;0.000;2022-08-02T09:38:26;2.65;;;2.28;;
47413;SDS011;33163;0.000;0.000;2022-08-02T09:40:53;4.55;;;2.63;;
47413;SDS011;33163;0.000;0.000;2022-08-02T09:43:20;3.53;;;2.50;;
47413;SDS011;33163;0.000;0.000;2022-08-02T09:46:08;5.05;;;2.38;;
47413;SDS011;33163;0.000;0.000;2022-08-02T09:48:45;3.00;;;2.47;;
47413;SDS011;33163;0.000;0.000;2022-08-02T09:51:16;6.30;;;2.40;;
47413;SDS011;33163;0.000;0.000;2022-08-02T09:53:45;5.45;;;2.63;;
47413;SDS011;33163;0.000;0.000;2022-08-02T09:56:12;5.68;;;2.67;;
47413;SDS011;33163;0.000;0.000;2022-08-02T09:58:42;4.05;;;2.58;;
47413;SDS011;33163;0.000;0.000;2022-08-02T10:01:09;3.20;;;2.42;;
47413;SDS011;33163;0.000;0.000;2022-08-02T10:03:36;5.03;;;2.63;;
47413;SDS011;33163;0.000;0.000;2022-08-02T10:06:02;2.67;;;2.17;;
47413;SDS011;33163;0.000;0.000;2022-08-02T10:08:30;3.78;;;2.40;;
47413;SDS011;33163;0.000;0.000;2022-08-02T10:10:57;3.47;;;2.38;;
47413;SDS011;33163;0.000;0.000;2022-08-02T10:13:28;3.20;;;2.33;;
47413;SDS011;33163;0.000;0.000;2022-08-02T10:15:57;3.10;;;2.53;;
47413;SDS011;33163;0.000;0.000;2022-08-02T10:18:23;2.90;;;1.92;;
47413;SDS011;33163;0.000;0.000;2022-08-02T10:20:50;2.65;;;2.33;;
47413;SDS011;33163;0.000;0.000;2022-08-02T10:23:20;4.32;;;2.25;;
47413;SDS011;33163;0.000;0.000;2022-08-02T10:25:50;6.07;;;2.60;;
47413;SDS011;33163;0.000;0.000;2022-08-02T10:28:19;3.00;;;2.00;;
47413;SDS011;33163;0.000;0.000;2022-08-02T10:30:51;7.57;;;2.72;;
47413;SDS011;33163;0.000;0.000;2022-08-02T10:33:22;4.25;;;2.35;;
47413;SDS011;33163;0.000;0.000;2022-08-02T10:35:51;3.67;;;2.38;;
47413;SDS011;33163;0.000;0.000;2022-08-02T10:38:22;3.38;;;2.10;;
47413;SDS011;33163;0.000;0.000;2022-08-02T10:40:49;3.63;;;2.47;;
47413;SDS011;33163;0.000;0.000;2022-08-02T10:46:28;3.45;;;2.60;;
47413;SDS011;33163;0.000;0.000;2022-08-02T10:49:02;3.15;;;2.00;;
47413;SDS011;33163;0.000;0.000;2022-08-02T10:54:22;2.17;;;1.70;;
47413;SDS011;33163;0.000;0.000;2022-08-02T10:56:50;3.25;;;1.88;;
47413;SDS011;33163;0.000;0.000;2022-08-02T10:59:26;4.07;;;2.00;;
47413;SDS011;33163;0.000;0.000;2022-08-02T11:01:54;3.40;;;2.13;;
47413;SDS011;33163;0.000;0.000;2022-08-02T11:04:31;2.83;;;1.60;;
47413;SDS011;33163;0.000;0.000;2022-08-02T11:07:19;2.42;;;1.65;;
47413;SDS011;33163;0.000;0.000;2022-08-02T11:09:56;3.35;;;2.08;;
47413;SDS011;33163;0.000;0.000;2022-08-02T11:12:23;2.08;;;1.83;;
47413;SDS011;33163;0.000;0.000;2022-08-02T11:14:57;3.60;;;2.13;;
47413;SDS011;33163;0.000;0.000;2022-08-02T11:17:25;3.58;;;2.00;;
47413;SDS011;33163;0.000;0.000;2022-08-02T11:22:42;3.38;;;1.80;;
47413;SDS011;33163;0.000;0.000;2022-08-02T11:27:56;2.97;;;2.03;;
47413;SDS011;33163;0.000;0.000;2022-08-02T11:30:24;3.30;;;2.10;;
47413;SDS011;33163;0.000;0.000;2022-08-02T11:32:53;3.47;;;1.98;;
47413;SDS011;33163;0.000;0.000;2022-08-02T11:35:22;3.72;;;1.73;;
47413;SDS011;33163;0.000;0.000;2022-08-02T11:37:56;3.15;;;1.73;;
47413;SDS011;33163;0.000;0.000;2022-08-02T11:40:23;3.58;;;1.73;;
47413;SDS011;33163;0.000;0.000;2022-08-02T11:43:01;3.63;;;2.20;;
47413;SDS011;33163;0.000;0.000;2022-08-02T11:45:28;2.72;;;1.92;;
47413;SDS011;33163;0.000;0.000;2022-08-02T11:47:55;2.08;;;1.70;;
47413;SDS011;33163;0.000;0.000;2022-08-02T11:50:23;3.25;;;1.83;;
47413;SDS011;33163;0.000;0.000;2022-08-02T11:52:50;1.92;;;1.73;;
47413;SDS011;33163;0.000;0.000;2022-08-02T11:55:25;2.65;;;1.70;;
47413;SDS011;33163;0.000;0.000;2022-08-02T11:57:56;4.38;;;2.00;;
47413;SDS011;33163;0.000;0.000;2022-08-02T12:00:23;2.08;;;1.70;;
47413;SDS011;33163;0.000;0.000;2022-08-02T12:02:50;2.75;;;1.90;;
47413;SDS011;33163;0.000;0.000;2022-08-02T12:05:18;4.13;;;1.70;;
47413;SDS011;33163;0.000;0.000;2022-08-02T12:07:49;2.17;;;1.73;;
47413;SDS011;33163;0.000;0.000;2022-08-02T12:10:18;2.65;;;1.67;;
47413;SDS011;33163;0.000;0.000;2022-08-02T12:12:47;3.45;;;1.65;;
47413;SDS011;33163;0.000;0.000;2022-08-02T12:15:14;2.17;;;1.65;;
47413;SDS011;33163;0.000;0.000;2022-08-02T12:17:53;3.17;;;1.50;;
47413;SDS011;33163;0.000;0.000;2022-08-02T12:20:37;2.90;;;1.55;;
47413;SDS011;33163;0.000;0.000;2022-08-02T12:23:08;1.70;;;1.60;;
47413;SDS011;33163;0.000;0.000;2022-08-02T12:25:35;4.15;;;1.70;;
47413;SDS011;33163;0.000;0.000;2022-08-02T12:28:12;2.45;;;1.90;;
47413;SDS011;33163;0.000;0.000;2022-08-02T12:30:47;4.10;;;1.63;;
47413;SDS011;33163;0.000;0.000;2022-08-02T12:33:18;3.13;;;1.63;;
47413;SDS011;33163;0.000;0.000;2022-08-02T12:35:46;3.63;;;1.45;;
47413;SDS011;33163;0.000;0.000;2022-08-02T12:38:14;2.03;;;1.45;;
47413;SDS011;33163;0.000;0.000;2022-08-02T12:40:41;1.88;;;1.67;;
47413;SDS011;33163;0.000;0.000;2022-08-02T12:43:15;2.42;;;1.60;;
47413;SDS011;33163;0.000;0.000;2022-08-02T12:45:45;2.15;;;1.13;;
47413;SDS011;33163;0.000;0.000;2022-08-02T12:48:13;2.58;;;1.55;;
47413;SDS011;33163;0.000;0.000;2022-08-02T12:50:41;4.28;;;1.77;;
47413;SDS011;33163;0.000;0.000;2022-08-02T12:53:09;3.20;;;1.75;;
47413;SDS011;33163;0.000;0.000;2022-08-02T12:55:50;3.88;;;1.50;;
47413;SDS011;33163;0.000;0.000;2022-08-02T12:58:19;2.40;;;1.60;;
47413;SDS011;33163;0.000;0.000;2022-08-02T13:00:50;2.63;;;1.90;;
47413;SDS011;33163;0.000;0.000;2022-08-02T13:03:18;2.60;;;1.63;;
47413;SDS011;33163;0.000;0.000;2022-08-02T13:05:45;4.22;;;1.25;;
47413;SDS011;33163;0.000;0.000;2022-08-02T13:08:12;1.75;;;1.50;;
47413;SDS011;33163;0.000;0.000;2022-08-02T13:10:39;5.40;;;1.30;;
47413;SDS011;33163;0.000;0.000;2022-08-02T13:13:08;1.70;;;1.58;;
47413;SDS011;33163;0.000;0.000;2022-08-02T13:15:35;1.73;;;1.60;;
47413;SDS011;33163;0.000;0.000;2022-08-02T13:18:02;2.13;;;1.45;;
47413;SDS011;33163;0.000;0.000;2022-08-02T13:20:29;3.53;;;1.75;;
47413;SDS011;33163;0.000;0.000;2022-08-02T13:22:56;2.75;;;1.73;;
47413;SDS011;33163;0.000;0.000;2022-08-02T13:25:22;3.20;;;1.55;;
47413;SDS011;33163;0.000;0.000;2022-08-02T13:27:49;1.63;;;1.20;;
47413;SDS011;33163;0.000;0.000;2022-08-02T13:30:17;2.55;;;1.60;;
47413;SDS011;33163;0.000;0.000;2022-08-02T13:32:45;5.15;;;1.92;;
47413;SDS011;33163;0.000;0.000;2022-08-02T13:35:11;2.17;;;1.65;;
47413;SDS011;33163;0.000;0.000;2022-08-02T13:37:39;3.30;;;1.50;;
47413;SDS011;33163;0.000;0.000;2022-08-02T13:40:07;1.73;;;1.23;;
47413;SDS011;33163;0.000;0.000;2022-08-02T13:42:34;1.55;;;1.45;;
47413;SDS011;33163;0.000;0.000;2022-08-02T13:45:01;1.20;;;1.10;;
47413;SDS011;33163;0.000;0.000;2022-08-02T13:47:30;5.18;;;1.73;;
47413;SDS011;33163;0.000;0.000;2022-08-02T13:49:56;1.70;;;1.60;;
47413;SDS011;33163;0.000;0.000;2022-08-02T13:52:23;2.10;;;1.60;;
47413;SDS011;33163;0.000;0.000;2022-08-02T13:54:50;5.10;;;1.58;;
47413;SDS011;33163;0.000;0.000;2022-08-02T13:57:17;1.90;;;1.55;;
47413;SDS011;33163;0.000;0.000;2022-08-02T13:59:43;2.95;;;1.35;;
47413;SDS011;33163;0.000;0.000;2022-08-02T14:02:10;2.20;;;1.63;;
47413;SDS011;33163;0.000;0.000;2022-08-02T14:04:38;3.92;;;1.50;;
47413;SDS011;33163;0.000;0.000;2022-08-02T14:07:05;3.85;;;1.70;;
47413;SDS011;33163;0.000;0.000;2022-08-02T14:09:32;2.03;;;1.30;;
47413;SDS011;33163;0.000;0.000;2022-08-02T14:12:00;2.92;;;1.65;;
47413;SDS011;33163;0.000;0.000;2022-08-02T14:14:27;2.78;;;1.63;;
47413;SDS011;33163;0.000;0.000;2022-08-02T14:16:53;4.03;;;1.65;;
47413;SDS011;33163;0.000;0.000;2022-08-02T14:19:20;4.03;;;1.40;;
47413;SDS011;33163;0.000;0.000;2022-08-02T14:21:49;2.78;;;1.60;;
47413;SDS011;33163;0.000;0.000;2022-08-02T14:24:17;3.65;;;1.73;;
47413;SDS011;33163;0.000;0.000;2022-08-02T14:26:45;3.05;;;1.60;;
47413;SDS011;33163;0.000;0.000;2022-08-02T14:29:13;4.03;;;1.58;;
47413;SDS011;33163;0.000;0.000;2022-08-02T14:31:40;2.28;;;1.30;;
47413;SDS011;33163;0.000;0.000;2022-08-02T14:34:07;2.88;;;1.70;;
47413;SDS011;33163;0.000;0.000;2022-08-02T14:36:35;1.88;;;1.17;;
47413;SDS011;33163;0.000;0.000;2022-08-02T14:39:04;2.47;;;1.50;;
47413;SDS011;33163;0.000;0.000;2022-08-02T14:41:31;4.85;;;1.50;;
47413;SDS011;33163;0.000;0.000;2022-08-02T14:44:00;1.65;;;1.30;;
47413;SDS011;33163;0.000;0.000;2022-08-02T14:46:31;2.08;;;1.58;;
47413;SDS011;33163;0.000;0.000;2022-08-02T14:49:00;2.22;;;1.60;;
47413;SDS011;33163;0.000;0.000;2022-08-02T14:51:27;5.28;;;1.70;;
47413;SDS011;33163;0.000;0.000;2022-08-02T14:53:55;7.25;;;2.00;;
47413;SDS011;33163;0.000;0.000;2022-08-02T14:56:23;4.88;;;2.10;;
47413;SDS011;33163;0.000;0.000;2022-08-02T14:58:50;1.65;;;1.40;;
47413;SDS011;33163;0.000;0.000;2022-08-02T15:01:17;3.20;;;1.70;;
47413;SDS011;33163;0.000;0.000;2022-08-02T15:03:44;1.63;;;1.33;;
47413;SDS011;33163;0.000;0.000;2022-08-02T15:06:11;3.63;;;1.88;;
47413;SDS011;33163;0.000;0.000;2022-08-02T15:08:38;2.35;;;1.58;;
47413;SDS011;33163;0.000;0.000;2022-08-02T15:11:05;3.60;;;1.40;;
47413;SDS011;33163;0.000;0.000;2022-08-02T15:13:33;6.35;;;1.52;;
47413;SDS011;33163;0.000;0.000;2022-08-02T15:16:02;6.07;;;1.67;;
47413;SDS011;33163;0.000;0.000;2022-08-02T15:18:28;4.50;;;1.60;;
47413;SDS011;33163;0.000;0.000;2022-08-02T15:20:55;2.42;;;1.20;;
47413;SDS011;33163;0.000;0.000;2022-08-02T15:23:22;4.55;;;1.73;;
47413;SDS011;33163;0.000;0.000;2022-08-02T15:25:50;3.75;;;1.60;;
47413;SDS011;33163;0.000;0.000;2022-08-02T15:28:17;4.28;;;1.40;;